createdAt,value
2019-01-12T00:01:27.368Z,72.74
2019-01-12T00:03:55.598Z,71.77
2019-01-12T00:06:23.141Z,71.49
2019-01-12T00:08:50.656Z,72.72
2019-01-12T00:11:18.182Z,70.61
2019-01-12T00:13:45.615Z,70.99
2019-01-12T00:16:13.340Z,71.63
2019-01-12T00:18:40.840Z,73.11
2019-01-12T00:21:08.351Z,73.33
2019-01-12T00:23:35.895Z,72.45
2019-01-12T00:26:03.540Z,72.24
2019-01-12T00:28:31.075Z,71.72
2019-01-12T00:30:58.569Z,70.44
2019-01-12T00:33:26.068Z,71.11
2019-01-12T00:35:53.576Z,69.54
2019-01-12T00:38:21.095Z,70.77
2019-01-12T00:40:48.642Z,71.39
2019-01-12T00:43:16.277Z,71.88
2019-01-12T00:45:43.798Z,72.26
2019-01-12T00:48:11.453Z,71.04
2019-01-12T00:50:39.010Z,70.87
2019-01-12T00:53:06.694Z,72.16
2019-01-12T00:55:34.277Z,70.62
2019-01-12T00:58:01.722Z,69.37
2019-01-12T01:00:29.644Z,70.03
2019-01-12T01:02:57.379Z,71.74
2019-01-12T01:05:25.087Z,70.68
2019-01-12T01:07:52.620Z,71.08
2019-01-12T01:10:21.688Z,69.16
2019-01-12T01:12:49.913Z,69.41
2019-01-12T01:15:18.654Z,70.18
2019-01-12T01:17:46.125Z,70.46
2019-01-12T01:20:14.728Z,70.48
2019-01-12T01:22:42.383Z,72.54
2019-01-12T01:25:10.074Z,76.42
2019-01-12T01:27:37.656Z,74.53
2019-01-12T01:30:08.509Z,71.25
2019-01-12T01:32:36.004Z,72.24
2019-01-12T01:35:04.269Z,72.79
2019-01-12T01:37:31.834Z,72.79
2019-01-12T01:39:59.447Z,72.08
2019-01-12T01:42:26.861Z,72.32
2019-01-12T01:44:54.431Z,73.51
2019-01-12T01:47:22.011Z,72.73
2019-01-12T01:49:49.535Z,73.54
2019-01-12T01:52:17.108Z,74.62
2019-01-12T01:54:44.567Z,73.33
2019-01-12T01:57:12.078Z,74.02
2019-01-12T01:59:39.665Z,74.02
2019-01-12T02:02:07.160Z,74.59
2019-01-12T02:04:34.643Z,74.71
2019-01-12T02:07:02.164Z,74.39
2019-01-12T02:09:29.781Z,79.16
2019-01-12T02:11:57.231Z,77.85
2019-01-12T02:14:24.803Z,80.28
2019-01-12T02:16:52.389Z,75.73
2019-01-12T02:19:19.955Z,76.31
2019-01-12T02:21:47.455Z,74.24
2019-01-12T02:24:15.036Z,73.89
2019-01-12T02:26:42.637Z,73.89
2019-01-12T02:29:10.159Z,74.67
2019-01-12T02:31:37.605Z,75.47
2019-01-12T02:34:05.176Z,75.59
2019-01-12T02:36:32.627Z,75.44
2019-01-12T02:39:00.058Z,75.88
2019-01-12T02:41:27.710Z,75.88
2019-01-12T02:43:55.285Z,76.04
2019-01-12T02:46:22.789Z,76.21
2019-01-12T02:48:50.345Z,75.96
2019-01-12T02:51:18.097Z,76.37
2019-01-12T02:53:46.030Z,75.95
2019-01-12T02:56:13.644Z,74.41
2019-01-12T02:58:41.168Z,73.65
2019-01-12T03:01:08.706Z,74.70
2019-01-12T03:03:36.285Z,72.48
2019-01-12T03:06:04.000Z,74.88
2019-01-12T03:08:31.548Z,71.44
2019-01-12T03:10:58.992Z,71.82
2019-01-12T03:13:26.449Z,71.73
2019-01-12T03:15:54.014Z,72.04
2019-01-12T03:18:21.597Z,68.94
2019-01-12T03:20:49.021Z,70.13
2019-01-12T03:23:16.562Z,69.85
2019-01-12T03:25:44.284Z,69.85
2019-01-12T03:28:11.959Z,69.04
2019-01-12T03:30:39.645Z,70.62
2019-01-12T03:33:07.219Z,69.61
2019-01-12T03:35:34.693Z,69.68
2019-01-12T03:38:02.299Z,69.21
2019-01-12T03:40:29.845Z,70.25
2019-01-12T03:42:57.336Z,70.09
2019-01-12T03:45:24.860Z,73.78
2019-01-12T03:47:52.330Z,69.35
2019-01-12T03:50:20.076Z,69.90
2019-01-12T03:52:47.582Z,70.25
2019-01-12T03:55:15.784Z,68.69
2019-01-12T03:57:43.269Z,68.77
2019-01-12T04:00:22.306Z,69.24
2019-01-12T04:02:49.832Z,69.87
2019-01-12T04:05:17.440Z,71.69
2019-01-12T04:07:44.995Z,68.81
2019-01-12T04:10:12.806Z,67.26
2019-01-12T04:12:40.249Z,67.26
2019-01-12T04:15:08.950Z,68.19
2019-01-12T04:17:36.489Z,69.79
2019-01-12T04:20:06.010Z,68.01
2019-01-12T04:22:33.602Z,69.37
2019-01-12T04:25:01.089Z,69.28
2019-01-12T04:27:28.569Z,70.71
2019-01-12T04:29:56.014Z,70.71
2019-01-12T04:32:23.608Z,69.29
2019-01-12T04:34:51.197Z,68.63
2019-01-12T04:37:18.738Z,67.91
2019-01-12T04:39:46.396Z,67.91
2019-01-12T04:42:13.909Z,67.34
2019-01-12T04:44:41.484Z,68.13
2019-01-12T04:47:09.046Z,68.13
2019-01-12T04:49:36.565Z,67.92
2019-01-12T04:52:04.093Z,67.92
2019-01-12T04:54:31.649Z,70.14
2019-01-12T04:56:59.245Z,67.26
2019-01-12T04:59:26.863Z,66.36
2019-01-12T05:01:54.341Z,66.36
2019-01-12T05:04:21.812Z,66.94
2019-01-12T05:06:49.347Z,67.38
2019-01-12T05:09:16.993Z,66.51
2019-01-12T05:11:44.482Z,66.14
2019-01-12T05:14:12.087Z,66.52
2019-01-12T05:16:39.652Z,66.52
2019-01-12T05:19:07.152Z,66.75
2019-01-12T05:21:35.259Z,67.44
2019-01-12T05:24:03.027Z,67.16
2019-01-12T05:26:30.580Z,66.96
2019-01-12T05:28:58.157Z,65.95
2019-01-12T05:31:25.651Z,67.79
2019-01-12T05:33:53.150Z,67.14
2019-01-12T05:36:20.805Z,66.98
2019-01-12T05:38:48.309Z,66.87
2019-01-12T05:41:15.836Z,66.87
2019-01-12T05:43:43.421Z,66.92
2019-01-12T05:46:11.388Z,66.92
2019-01-12T05:48:39.390Z,66.55
2019-01-12T05:51:06.990Z,67.50
2019-01-12T05:53:34.637Z,67.65
2019-01-12T05:56:02.128Z,67.17
2019-01-12T05:58:29.798Z,66.74
2019-01-12T06:00:57.440Z,67.02
2019-01-12T06:03:24.856Z,69.33
2019-01-12T06:05:52.517Z,67.78
2019-01-12T06:08:20.087Z,66.80
2019-01-12T06:10:47.549Z,65.80
2019-01-12T06:13:15.145Z,67.92
2019-01-12T06:15:42.709Z,65.11
2019-01-12T06:18:10.192Z,66.53
2019-01-12T06:20:37.701Z,66.29
2019-01-12T06:23:05.213Z,69.35
2019-01-12T06:25:32.776Z,65.09
2019-01-12T06:28:00.217Z,65.60
2019-01-12T06:30:28.131Z,67.13
2019-01-12T06:32:56.739Z,66.91
2019-01-12T06:35:24.237Z,66.56
2019-01-12T06:37:51.757Z,64.95
2019-01-12T06:40:19.497Z,66.00
2019-01-12T06:42:47.501Z,66.00
2019-01-12T06:45:15.782Z,66.08
2019-01-12T06:47:43.484Z,64.81
2019-01-12T06:50:14.331Z,65.73
2019-01-12T06:52:41.869Z,67.11
2019-01-12T06:55:09.715Z,68.48
2019-01-12T06:57:37.324Z,68.31
2019-01-12T07:00:08.038Z,68.46
2019-01-12T07:02:35.776Z,69.77
2019-01-12T07:05:04.817Z,69.28
2019-01-12T07:07:32.438Z,69.42
2019-01-12T07:09:59.900Z,69.85
2019-01-12T07:12:27.508Z,74.08
2019-01-12T07:14:55.067Z,72.82
2019-01-12T07:17:22.541Z,70.49
2019-01-12T07:19:50.063Z,69.83
2019-01-12T07:22:17.564Z,69.94
2019-01-12T07:24:45.096Z,69.79
2019-01-12T07:27:12.704Z,68.65
2019-01-12T07:29:40.266Z,68.68
2019-01-12T07:32:07.769Z,67.92
2019-01-12T07:34:35.339Z,67.20
2019-01-12T07:37:02.903Z,67.20
2019-01-12T07:39:30.329Z,65.17
2019-01-12T07:41:58.008Z,65.90
2019-01-12T07:44:25.638Z,66.87
2019-01-12T07:46:53.234Z,66.49
2019-01-12T07:49:20.763Z,66.97
2019-01-12T07:51:49.163Z,67.20
2019-01-12T07:54:16.792Z,69.23
2019-01-12T07:56:44.283Z,66.02
2019-01-12T07:59:11.932Z,66.45
2019-01-12T08:01:39.775Z,66.56
2019-01-12T08:04:07.452Z,67.94
2019-01-12T08:06:34.943Z,66.19
2019-01-12T08:09:04.415Z,66.06
2019-01-12T08:11:32.050Z,63.92
2019-01-12T08:13:59.645Z,64.99
2019-01-12T08:16:27.374Z,65.79
2019-01-12T08:18:54.964Z,65.73
2019-01-12T08:21:22.721Z,64.57
2019-01-12T08:23:50.295Z,66.58
2019-01-12T08:26:17.736Z,65.19
2019-01-12T08:28:45.280Z,62.70
2019-01-12T08:31:12.777Z,63.18
2019-01-12T08:33:40.320Z,61.80
2019-01-12T08:36:07.974Z,61.82
2019-01-12T08:38:35.484Z,65.07
2019-01-12T08:41:03.061Z,65.02
2019-01-12T08:43:31.103Z,62.86
2019-01-12T08:45:59.258Z,61.73
2019-01-12T08:48:26.868Z,62.54
2019-01-12T08:50:54.632Z,63.72
2019-01-12T08:53:22.260Z,63.80
2019-01-12T08:55:49.829Z,62.60
2019-01-12T08:58:17.283Z,62.63
2019-01-12T09:00:44.792Z,60.36
2019-01-12T09:03:12.409Z,59.54
2019-01-12T09:05:39.827Z,58.77
2019-01-12T09:08:07.833Z,59.47
2019-01-12T09:10:35.303Z,62.90
2019-01-12T09:13:02.912Z,60.88
2019-01-12T09:15:30.672Z,62.26
2019-01-12T09:17:58.147Z,61.88
2019-01-12T09:20:25.864Z,57.48
2019-01-12T09:22:54.339Z,57.14
2019-01-12T09:25:23.082Z,54.89
2019-01-12T09:27:50.877Z,55.26
2019-01-12T09:30:20.283Z,56.71
2019-01-12T09:32:48.173Z,57.89
2019-01-12T09:35:15.921Z,59.14
2019-01-12T09:37:43.740Z,65.24
2019-01-12T09:40:14.012Z,58.79
2019-01-12T09:42:41.711Z,57.59
2019-01-12T09:45:10.733Z,57.48
2019-01-12T09:47:38.754Z,61.38
2019-01-12T09:50:08.493Z,57.93
2019-01-12T09:52:36.682Z,58.04
2019-01-12T09:55:04.636Z,55.98
2019-01-12T09:57:32.151Z,57.67
2019-01-12T09:59:59.720Z,57.89
2019-01-12T10:02:27.345Z,55.91
2019-01-12T10:04:55.044Z,56.22
2019-01-12T10:07:22.735Z,55.93
2019-01-12T10:09:50.294Z,59.43
2019-01-12T10:12:17.877Z,54.34
2019-01-12T10:14:45.455Z,53.25
2019-01-12T10:17:12.929Z,56.42
2019-01-12T10:19:40.609Z,56.08
2019-01-12T10:22:08.341Z,55.92
2019-01-12T10:24:35.767Z,57.20
2019-01-12T10:27:03.813Z,54.51
2019-01-12T10:29:31.425Z,55.01
2019-01-12T10:31:58.922Z,55.79
2019-01-12T10:34:27.328Z,56.12
2019-01-12T10:36:54.998Z,57.26
2019-01-12T10:39:22.699Z,53.85
2019-01-12T10:41:50.453Z,55.58
2019-01-12T10:44:18.185Z,57.59
2019-01-12T10:46:45.877Z,55.21
2019-01-12T10:49:13.305Z,55.92
2019-01-12T10:51:40.826Z,59.52
2019-01-12T10:54:08.813Z,58.47
2019-01-12T10:56:36.521Z,56.51
2019-01-12T10:59:04.748Z,56.72
2019-01-12T11:01:32.553Z,59.95
2019-01-12T11:04:00.130Z,58.48
2019-01-12T11:06:27.707Z,59.01
2019-01-12T11:08:55.366Z,56.06
2019-01-12T11:11:23.386Z,57.80
2019-01-12T11:13:51.013Z,58.45
2019-01-12T11:16:18.749Z,60.72
2019-01-12T11:18:46.370Z,59.21
2019-01-12T11:21:13.874Z,58.68
2019-01-12T11:23:41.748Z,58.55
2019-01-12T11:26:09.865Z,58.59
2019-01-12T11:28:37.541Z,59.15
2019-01-12T11:31:05.397Z,57.87
2019-01-12T11:33:33.719Z,60.09
2019-01-12T11:36:01.435Z,58.72
2019-01-12T11:38:29.016Z,58.63
2019-01-12T11:40:57.008Z,57.26
2019-01-12T11:43:24.698Z,58.89
2019-01-12T11:45:52.435Z,55.81
2019-01-12T11:48:19.933Z,57.25
2019-01-12T11:50:47.441Z,57.58
2019-01-12T11:53:15.172Z,57.52
2019-01-12T11:55:42.825Z,57.88
2019-01-12T11:58:10.520Z,57.49
2019-01-12T12:00:38.091Z,57.75
2019-01-12T12:03:06.110Z,57.43
2019-01-12T12:05:33.600Z,55.80
2019-01-12T12:08:01.190Z,55.12
2019-01-12T12:10:28.888Z,56.13
2019-01-12T12:12:56.500Z,54.96
2019-01-12T12:15:24.151Z,57.48
2019-01-12T12:17:51.652Z,58.18
2019-01-12T12:20:21.691Z,57.30
2019-01-12T12:22:49.352Z,58.00
2019-01-12T12:25:17.692Z,56.05
2019-01-12T12:27:45.367Z,56.35
2019-01-12T12:30:18.959Z,56.29
2019-01-12T12:32:46.680Z,57.83
2019-01-12T12:35:15.078Z,54.69
2019-01-12T12:37:42.705Z,58.61
2019-01-12T12:40:11.656Z,56.26
2019-01-12T12:42:39.274Z,57.51
2019-01-12T12:45:10.880Z,56.68
2019-01-12T12:47:38.353Z,57.36
2019-01-12T12:50:08.266Z,57.44
2019-01-12T12:52:35.903Z,56.64
2019-01-12T12:55:04.735Z,57.07
2019-01-12T12:57:33.035Z,58.13
2019-01-12T13:00:00.770Z,59.20
2019-01-12T13:02:28.233Z,55.53
2019-01-12T13:04:55.692Z,57.58
2019-01-12T13:07:23.204Z,58.02
2019-01-12T13:09:50.686Z,57.91
2019-01-12T13:12:18.461Z,55.90
2019-01-12T13:14:46.207Z,56.28
2019-01-12T13:17:13.982Z,57.67
2019-01-12T13:19:50.342Z,57.56
2019-01-12T13:22:17.893Z,55.90
2019-01-12T13:24:49.315Z,55.25
2019-01-12T13:27:16.837Z,57.30
2019-01-12T13:29:44.497Z,54.45
2019-01-12T13:32:12.054Z,56.12
2019-01-12T13:34:40.704Z,56.18
2019-01-12T13:37:08.560Z,55.07
2019-01-12T13:39:36.074Z,54.65
2019-01-12T13:42:03.881Z,56.22
2019-01-12T13:44:31.424Z,54.96
2019-01-12T13:46:59.066Z,54.74
2019-01-12T13:49:26.724Z,55.32
2019-01-12T13:51:55.479Z,58.81
2019-01-12T13:54:23.213Z,55.86
2019-01-12T13:56:51.364Z,63.12
2019-01-12T13:59:19.682Z,56.65
2019-01-12T14:01:47.460Z,55.74
2019-01-12T14:04:15.767Z,57.20
2019-01-12T14:06:43.509Z,56.09
2019-01-12T14:09:11.162Z,55.94
2019-01-12T14:11:43.902Z,49.21
2019-01-12T14:14:14.241Z,48.99
2019-01-12T14:16:41.766Z,47.14
2019-01-12T14:19:09.327Z,49.00
2019-01-12T14:21:36.987Z,52.20
2019-01-12T14:24:04.552Z,54.00
2019-01-12T14:26:32.377Z,55.42
2019-01-12T14:28:59.984Z,56.58
2019-01-12T14:31:27.462Z,57.64
2019-01-12T14:33:55.089Z,58.24
2019-01-12T14:36:22.716Z,57.41
2019-01-12T14:38:50.301Z,57.04
2019-01-12T14:41:18.111Z,57.07
2019-01-12T14:43:45.735Z,63.28
2019-01-12T14:46:13.359Z,58.06
2019-01-12T14:48:41.141Z,59.06
2019-01-12T14:51:08.746Z,59.06
2019-01-12T14:53:36.774Z,58.65
2019-01-12T14:56:04.473Z,64.61
2019-01-12T14:58:32.090Z,59.12
2019-01-12T15:00:59.661Z,64.58
2019-01-12T15:03:27.064Z,58.94
2019-01-12T15:05:54.668Z,60.06
2019-01-12T15:08:22.143Z,59.85
2019-01-12T15:10:49.708Z,59.03
2019-01-12T15:13:17.156Z,59.20
2019-01-12T15:15:44.879Z,58.58
2019-01-12T15:18:12.477Z,60.26
2019-01-12T15:20:39.962Z,59.28
2019-01-12T15:23:07.583Z,59.28
2019-01-12T15:25:35.120Z,60.95
2019-01-12T15:28:09.138Z,58.65
2019-01-12T15:30:32.574Z,59.46
2019-01-12T15:33:02.775Z,59.46
2019-01-12T15:35:32.166Z,60.19
2019-01-12T15:37:59.817Z,59.29
2019-01-12T15:40:27.655Z,61.90
2019-01-12T15:42:55.148Z,58.69
2019-01-12T15:45:23.961Z,59.56
2019-01-12T15:47:52.038Z,59.56
2019-01-12T15:50:22.243Z,61.29
2019-01-12T15:52:49.973Z,59.57
2019-01-12T15:55:17.477Z,59.98
2019-01-12T15:57:46.672Z,58.99
2019-01-12T16:00:17.143Z,58.60
2019-01-12T16:02:44.881Z,58.60
2019-01-12T16:05:12.500Z,61.78
2019-01-12T16:07:40.419Z,60.89
2019-01-12T16:10:09.439Z,60.89
2019-01-12T16:12:37.148Z,61.83
2019-01-12T16:15:07.568Z,59.99
2019-01-12T16:17:35.071Z,64.79
2019-01-12T16:20:03.247Z,60.39
2019-01-12T16:22:30.789Z,61.14
2019-01-12T16:24:58.327Z,61.14
2019-01-12T16:27:25.868Z,60.83
2019-01-12T16:29:53.411Z,62.07
2019-01-12T16:32:20.914Z,60.61
2019-01-12T16:34:48.650Z,60.76
2019-01-12T16:37:16.397Z,60.76
2019-01-12T16:39:44.097Z,60.93
2019-01-12T16:42:11.723Z,60.93
2019-01-12T16:44:39.602Z,61.50
2019-01-12T16:47:07.253Z,61.76
2019-01-12T16:49:34.763Z,61.49
2019-01-12T16:52:02.732Z,61.90
2019-01-12T16:54:30.360Z,63.44
2019-01-12T16:56:57.904Z,64.55
2019-01-12T16:59:25.798Z,62.23
2019-01-12T17:01:53.239Z,61.20
2019-01-12T17:04:20.955Z,61.36
2019-01-12T17:06:48.614Z,64.33
2019-01-12T17:09:16.183Z,62.94
2019-01-12T17:11:43.680Z,62.64
2019-01-12T17:14:11.300Z,64.34
2019-01-12T17:16:38.720Z,62.89
2019-01-12T17:19:06.370Z,61.89
2019-01-12T17:21:33.921Z,61.78
2019-01-12T17:24:01.468Z,60.59
2019-01-12T17:26:28.975Z,61.83
2019-01-12T17:28:56.548Z,61.82
2019-01-12T17:31:24.217Z,61.82
2019-01-12T17:33:51.768Z,62.42
2019-01-12T17:36:19.424Z,63.08
2019-01-12T17:38:47.021Z,63.08
2019-01-12T17:41:14.905Z,62.80
2019-01-12T17:43:42.526Z,62.34
2019-01-12T17:46:10.058Z,62.75
2019-01-12T17:48:38.012Z,63.03
2019-01-12T17:51:05.598Z,64.04
2019-01-12T17:53:33.676Z,64.68
2019-01-12T17:56:02.315Z,64.39
2019-01-12T17:58:30.385Z,64.00
2019-01-12T18:00:58.006Z,63.53
2019-01-12T18:03:25.695Z,63.14
2019-01-12T18:05:53.589Z,61.85
2019-01-12T18:08:21.458Z,60.77
2019-01-12T18:10:49.178Z,59.80
2019-01-12T18:13:16.751Z,60.38
2019-01-12T18:15:44.286Z,63.81
2019-01-12T18:18:11.839Z,61.40
2019-01-12T18:20:39.736Z,62.37
2019-01-12T18:23:07.286Z,59.29
2019-01-12T18:25:34.885Z,59.23
2019-01-12T18:28:02.545Z,62.24
2019-01-12T18:30:29.967Z,59.15
2019-01-12T18:32:57.619Z,59.54
2019-01-12T18:35:25.189Z,59.76
2019-01-12T18:37:52.708Z,58.66
2019-01-12T18:40:20.289Z,58.22
2019-01-12T18:42:49.021Z,58.51
2019-01-12T18:45:17.398Z,58.67
2019-01-12T18:47:45.380Z,59.84
2019-01-12T18:50:16.099Z,59.02
2019-01-12T18:52:43.663Z,60.36
2019-01-12T18:55:11.676Z,62.63
2019-01-12T18:57:39.298Z,59.52
2019-01-12T19:00:18.396Z,63.54
2019-01-12T19:02:41.879Z,58.83
2019-01-12T19:05:09.520Z,60.28
2019-01-12T19:07:37.025Z,61.03
2019-01-12T19:10:05.701Z,58.71
2019-01-12T19:12:33.197Z,64.58
2019-01-12T19:15:00.836Z,59.06
2019-01-12T19:17:28.759Z,60.25
2019-01-12T19:19:56.484Z,58.73
2019-01-12T19:22:24.214Z,59.55
2019-01-12T19:24:51.832Z,59.41
2019-01-12T19:27:19.367Z,59.78
2019-01-12T19:29:46.840Z,57.57
2019-01-12T19:32:14.388Z,58.22
2019-01-12T19:34:41.913Z,58.71
2019-01-12T19:37:09.368Z,58.08
2019-01-12T19:39:37.023Z,58.55
2019-01-12T19:42:04.638Z,57.74
2019-01-12T19:44:32.150Z,57.92
2019-01-12T19:46:59.772Z,58.33
2019-01-12T19:49:27.400Z,58.81
2019-01-12T19:51:55.051Z,58.16
2019-01-12T19:54:22.707Z,58.28
2019-01-12T19:56:50.242Z,60.40
2019-01-12T19:59:17.820Z,62.88
2019-01-12T20:01:45.373Z,62.88
2019-01-12T20:04:13.288Z,63.48
2019-01-12T20:06:40.782Z,60.90
2019-01-12T20:09:09.041Z,60.08
2019-01-12T20:11:36.553Z,60.03
2019-01-12T20:14:04.739Z,64.10
2019-01-12T20:16:32.190Z,60.63
2019-01-12T20:18:59.630Z,67.50
2019-01-12T20:21:27.109Z,67.50
2019-01-12T20:23:54.655Z,61.63
2019-01-12T20:26:22.397Z,61.63
2019-01-12T20:28:49.845Z,61.69
2019-01-12T20:32:16.849Z,61.69
2019-01-12T20:34:55.571Z,68.27
2019-01-12T20:37:55.348Z,67.96
2019-01-12T20:40:57.576Z,62.53
2019-01-12T20:44:03.865Z,62.53
2019-01-12T20:47:02.365Z,63.00
2019-01-12T20:49:51.561Z,62.98
2019-01-12T20:52:46.309Z,63.57
2019-01-12T20:55:33.637Z,64.07
2019-01-12T20:58:39.188Z,67.97
2019-01-12T21:01:40.642Z,65.65
2019-01-12T21:04:48.088Z,68.48
2019-01-12T21:08:01.578Z,67.59
2019-01-12T21:10:58.819Z,70.19
2019-01-12T21:13:59.631Z,63.86
2019-01-12T21:16:31.022Z,63.86
2019-01-12T21:18:58.977Z,68.60
2019-01-12T21:21:26.555Z,66.51
2019-01-12T21:23:53.968Z,68.21
2019-01-12T21:26:21.477Z,68.21
2019-01-12T21:28:50.158Z,66.90
2019-01-12T21:31:17.782Z,66.90
2019-01-12T21:33:45.294Z,66.72
2019-01-12T21:36:12.832Z,67.61
2019-01-12T21:38:40.285Z,67.67
2019-01-12T21:41:08.008Z,66.43
2019-01-12T21:43:35.468Z,67.25
2019-01-12T21:46:03.377Z,67.99
2019-01-12T21:48:30.908Z,68.19
2019-01-12T21:50:58.322Z,69.53
2019-01-12T21:53:25.924Z,67.32
2019-01-12T21:55:53.614Z,70.04
2019-01-12T21:58:21.309Z,67.60
2019-01-12T22:00:49.264Z,67.85
2019-01-12T22:03:16.728Z,68.43
2019-01-12T22:05:45.565Z,68.70
2019-01-12T22:08:13.133Z,70.71
2019-01-12T22:10:40.722Z,72.43
2019-01-12T22:13:08.228Z,69.74
2019-01-12T22:15:35.786Z,69.26
2019-01-12T22:18:03.439Z,72.90
2019-01-12T22:20:31.148Z,70.62
2019-01-12T22:22:58.691Z,70.97
2019-01-12T22:25:26.274Z,70.07
2019-01-12T22:27:53.708Z,69.94
2019-01-12T22:30:21.462Z,70.70
2019-01-12T22:32:48.881Z,68.84
2019-01-12T22:35:16.514Z,75.13
2019-01-12T22:37:43.998Z,81.39
2019-01-12T22:40:16.463Z,75.50
2019-01-12T22:42:43.916Z,67.31
2019-01-12T22:45:11.448Z,67.51
2019-01-12T22:47:39.027Z,68.64
2019-01-12T22:50:08.266Z,69.36
2019-01-12T22:52:35.727Z,70.34
2019-01-12T22:55:04.339Z,79.27
2019-01-12T22:57:31.902Z,83.04
2019-01-12T22:59:59.412Z,72.42
2019-01-12T23:02:26.843Z,70.30
2019-01-12T23:04:54.313Z,74.36
2019-01-12T23:07:21.816Z,71.75
2019-01-12T23:09:49.406Z,69.12
2019-01-12T23:12:16.779Z,72.07
2019-01-12T23:14:44.317Z,71.06
2019-01-12T23:17:12.035Z,70.86
2019-01-12T23:19:39.531Z,71.34
2019-01-12T23:22:07.096Z,70.97
2019-01-12T23:24:34.568Z,71.81
2019-01-12T23:27:01.987Z,71.84
2019-01-12T23:29:29.478Z,74.26
2019-01-12T23:31:56.952Z,75.42
2019-01-12T23:34:24.462Z,73.69
2019-01-12T23:36:51.956Z,73.21
2019-01-12T23:39:19.482Z,71.68
2019-01-12T23:41:47.082Z,70.95
2019-01-12T23:44:14.947Z,70.89
2019-01-12T23:46:42.757Z,71.72
2019-01-12T23:49:10.301Z,70.82
2019-01-12T23:51:37.894Z,70.76
2019-01-12T23:54:05.423Z,70.63
2019-01-12T23:56:33.130Z,77.01
2019-01-12T23:59:00.710Z,73.40
